sensor_id;sensor_type;location;lat;lon;timestamp;temperature;humidity
15646;DHT22;7922;43.622;1.476;2022-07-29T00:02:18;23.10;99.90
15646;DHT22;7922;43.622;1.476;2022-07-29T00:04:43;23.10;99.90
15646;DHT22;7922;43.622;1.476;2022-07-29T00:07:09;23.00;99.90
15646;DHT22;7922;43.622;1.476;2022-07-29T00:09:35;23.00;99.90
15646;DHT22;7922;43.622;1.476;2022-07-29T00:12:01;23.00;99.90
15646;DHT22;7922;43.622;1.476;2022-07-29T00:14:27;22.90;99.90
15646;DHT22;7922;43.622;1.476;2022-07-29T00:16:53;22.90;99.90
15646;DHT22;7922;43.622;1.476;2022-07-29T00:19:19;22.90;99.90
15646;DHT22;7922;43.622;1.476;2022-07-29T00:21:44;22.90;99.90
15646;DHT22;7922;43.622;1.476;2022-07-29T00:24:10;22.80;99.90
15646;DHT22;7922;43.622;1.476;2022-07-29T00:26:36;22.80;99.90
15646;DHT22;7922;43.622;1.476;2022-07-29T00:29:03;22.80;99.90
15646;DHT22;7922;43.622;1.476;2022-07-29T00:31:29;22.80;99.90
15646;DHT22;7922;43.622;1.476;2022-07-29T00:33:55;22.80;99.90
15646;DHT22;7922;43.622;1.476;2022-07-29T00:36:22;22.70;99.90
15646;DHT22;7922;43.622;1.476;2022-07-29T00:38:48;22.70;99.90
15646;DHT22;7922;43.622;1.476;2022-07-29T00:41:14;22.80;99.90
15646;DHT22;7922;43.622;1.476;2022-07-29T00:43:40;22.70;99.90
15646;DHT22;7922;43.622;1.476;2022-07-29T00:46:06;22.70;99.90
15646;DHT22;7922;43.622;1.476;2022-07-29T00:48:32;22.70;99.90
15646;DHT22;7922;43.622;1.476;2022-07-29T00:50:58;22.70;99.90
15646;DHT22;7922;43.622;1.476;2022-07-29T00:53:25;22.70;99.90
15646;DHT22;7922;43.622;1.476;2022-07-29T00:55:54;22.60;99.90
15646;DHT22;7922;43.622;1.476;2022-07-29T00:58:20;22.60;99.90
15646;DHT22;7922;43.622;1.476;2022-07-29T01:00:46;22.50;99.90
15646;DHT22;7922;43.622;1.476;2022-07-29T01:03:12;22.50;99.90
15646;DHT22;7922;43.622;1.476;2022-07-29T01:05:38;22.50;99.90
15646;DHT22;7922;43.622;1.476;2022-07-29T01:08:06;22.40;99.90
15646;DHT22;7922;43.622;1.476;2022-07-29T01:10:33;22.40;99.90
15646;DHT22;7922;43.622;1.476;2022-07-29T01:13:02;22.30;99.90
15646;DHT22;7922;43.622;1.476;2022-07-29T01:15:28;22.30;99.90
15646;DHT22;7922;43.622;1.476;2022-07-29T01:18:05;22.30;99.90
15646;DHT22;7922;43.622;1.476;2022-07-29T01:26:27;22.20;99.90
15646;DHT22;7922;43.622;1.476;2022-07-29T01:31:59;22.10;99.90
15646;DHT22;7922;43.622;1.476;2022-07-29T01:34:55;22.00;99.90
15646;DHT22;7922;43.622;1.476;2022-07-29T01:37:37;21.90;99.90
15646;DHT22;7922;43.622;1.476;2022-07-29T01:40:06;21.90;99.90
15646;DHT22;7922;43.622;1.476;2022-07-29T01:42:40;21.90;99.90
15646;DHT22;7922;43.622;1.476;2022-07-29T01:45:21;21.90;99.90
15646;DHT22;7922;43.622;1.476;2022-07-29T01:50:36;21.80;99.90
15646;DHT22;7922;43.622;1.476;2022-07-29T01:53:08;21.80;99.90
15646;DHT22;7922;43.622;1.476;2022-07-29T01:55:41;21.70;99.90
15646;DHT22;7922;43.622;1.476;2022-07-29T01:58:08;21.70;99.90
15646;DHT22;7922;43.622;1.476;2022-07-29T02:00:36;21.70;99.90
15646;DHT22;7922;43.622;1.476;2022-07-29T02:03:07;21.70;99.90
15646;DHT22;7922;43.622;1.476;2022-07-29T02:05:35;21.60;99.90
15646;DHT22;7922;43.622;1.476;2022-07-29T02:08:02;21.60;99.90
15646;DHT22;7922;43.622;1.476;2022-07-29T02:10:31;21.60;99.90
15646;DHT22;7922;43.622;1.476;2022-07-29T02:12:58;21.60;99.90
15646;DHT22;7922;43.622;1.476;2022-07-29T02:15:27;21.60;99.90
15646;DHT22;7922;43.622;1.476;2022-07-29T02:18:18;21.50;99.90
15646;DHT22;7922;43.622;1.476;2022-07-29T02:20:49;21.50;99.90
15646;DHT22;7922;43.622;1.476;2022-07-29T02:23:19;21.40;99.90
15646;DHT22;7922;43.622;1.476;2022-07-29T02:25:49;21.40;99.90
15646;DHT22;7922;43.622;1.476;2022-07-29T02:28:16;21.40;99.90
15646;DHT22;7922;43.622;1.476;2022-07-29T02:30:43;21.50;99.90
15646;DHT22;7922;43.622;1.476;2022-07-29T02:33:12;21.40;99.90
15646;DHT22;7922;43.622;1.476;2022-07-29T02:35:40;21.40;99.90
15646;DHT22;7922;43.622;1.476;2022-07-29T02:38:09;21.40;99.90
15646;DHT22;7922;43.622;1.476;2022-07-29T02:40:57;21.40;99.90
15646;DHT22;7922;43.622;1.476;2022-07-29T02:43:25;21.40;99.90
15646;DHT22;7922;43.622;1.476;2022-07-29T02:45:53;21.40;99.90
15646;DHT22;7922;43.622;1.476;2022-07-29T02:48:30;21.40;99.90
15646;DHT22;7922;43.622;1.476;2022-07-29T02:51:08;21.40;99.90
15646;DHT22;7922;43.622;1.476;2022-07-29T02:53:38;21.40;99.90
15646;DHT22;7922;43.622;1.476;2022-07-29T02:56:10;21.40;99.90
15646;DHT22;7922;43.622;1.476;2022-07-29T02:58:42;21.40;99.90
15646;DHT22;7922;43.622;1.476;2022-07-29T03:01:21;21.40;99.90
15646;DHT22;7922;43.622;1.476;2022-07-29T03:03:49;21.40;99.90
15646;DHT22;7922;43.622;1.476;2022-07-29T03:06:16;21.40;99.90
15646;DHT22;7922;43.622;1.476;2022-07-29T03:08:43;21.40;99.90
15646;DHT22;7922;43.622;1.476;2022-07-29T03:11:10;21.40;99.90
15646;DHT22;7922;43.622;1.476;2022-07-29T03:13:36;21.30;99.90
15646;DHT22;7922;43.622;1.476;2022-07-29T03:16:04;21.30;99.90
15646;DHT22;7922;43.622;1.476;2022-07-29T03:18:31;21.30;99.90
15646;DHT22;7922;43.622;1.476;2022-07-29T03:20:57;21.30;99.90
15646;DHT22;7922;43.622;1.476;2022-07-29T03:23:23;21.20;99.90
15646;DHT22;7922;43.622;1.476;2022-07-29T03:25:51;21.20;99.90
15646;DHT22;7922;43.622;1.476;2022-07-29T03:28:17;21.20;99.90
15646;DHT22;7922;43.622;1.476;2022-07-29T03:30:43;21.20;99.90
15646;DHT22;7922;43.622;1.476;2022-07-29T03:33:10;21.20;99.90
15646;DHT22;7922;43.622;1.476;2022-07-29T03:35:36;21.10;99.90
15646;DHT22;7922;43.622;1.476;2022-07-29T03:38:01;21.10;99.90
15646;DHT22;7922;43.622;1.476;2022-07-29T03:40:48;21.10;99.90
15646;DHT22;7922;43.622;1.476;2022-07-29T03:43:17;21.10;99.90
15646;DHT22;7922;43.622;1.476;2022-07-29T03:45:46;21.10;99.90
15646;DHT22;7922;43.622;1.476;2022-07-29T03:48:15;21.10;99.90
15646;DHT22;7922;43.622;1.476;2022-07-29T03:50:41;21.10;99.90
15646;DHT22;7922;43.622;1.476;2022-07-29T03:53:08;21.10;99.90
15646;DHT22;7922;43.622;1.476;2022-07-29T03:55:40;21.10;99.90
15646;DHT22;7922;43.622;1.476;2022-07-29T03:58:06;21.00;99.90
15646;DHT22;7922;43.622;1.476;2022-07-29T04:00:34;21.00;99.90
15646;DHT22;7922;43.622;1.476;2022-07-29T04:03:01;21.00;99.90
15646;DHT22;7922;43.622;1.476;2022-07-29T04:05:27;21.00;99.90
15646;DHT22;7922;43.622;1.476;2022-07-29T04:07:53;21.00;99.90
15646;DHT22;7922;43.622;1.476;2022-07-29T04:10:19;21.00;99.90
15646;DHT22;7922;43.622;1.476;2022-07-29T04:12:45;21.00;99.90
15646;DHT22;7922;43.622;1.476;2022-07-29T04:15:11;21.00;99.90
15646;DHT22;7922;43.622;1.476;2022-07-29T04:17:37;21.00;99.90
15646;DHT22;7922;43.622;1.476;2022-07-29T04:20:03;21.00;99.90
15646;DHT22;7922;43.622;1.476;2022-07-29T04:22:29;21.10;99.90
15646;DHT22;7922;43.622;1.476;2022-07-29T04:24:55;21.00;99.90
15646;DHT22;7922;43.622;1.476;2022-07-29T04:27:21;21.00;99.90
15646;DHT22;7922;43.622;1.476;2022-07-29T04:29:46;21.00;99.90
15646;DHT22;7922;43.622;1.476;2022-07-29T04:32:12;21.00;99.90
15646;DHT22;7922;43.622;1.476;2022-07-29T04:34:38;21.00;99.90
15646;DHT22;7922;43.622;1.476;2022-07-29T04:37:04;20.90;99.90
15646;DHT22;7922;43.622;1.476;2022-07-29T04:39:29;20.90;99.90
15646;DHT22;7922;43.622;1.476;2022-07-29T04:41:55;21.00;99.90
15646;DHT22;7922;43.622;1.476;2022-07-29T04:44:21;21.00;99.90
15646;DHT22;7922;43.622;1.476;2022-07-29T04:46:47;21.00;99.90
15646;DHT22;7922;43.622;1.476;2022-07-29T04:49:13;21.10;99.90
15646;DHT22;7922;43.622;1.476;2022-07-29T04:51:39;21.10;99.90
15646;DHT22;7922;43.622;1.476;2022-07-29T04:54:05;21.10;99.90
15646;DHT22;7922;43.622;1.476;2022-07-29T04:56:32;21.00;99.90
15646;DHT22;7922;43.622;1.476;2022-07-29T04:58:58;20.90;99.90
15646;DHT22;7922;43.622;1.476;2022-07-29T05:01:24;20.80;99.90
15646;DHT22;7922;43.622;1.476;2022-07-29T05:03:49;20.60;99.90
15646;DHT22;7922;43.622;1.476;2022-07-29T05:06:15;20.40;99.90
15646;DHT22;7922;43.622;1.476;2022-07-29T05:08:41;20.30;99.90
15646;DHT22;7922;43.622;1.476;2022-07-29T05:11:07;20.20;99.90
15646;DHT22;7922;43.622;1.476;2022-07-29T05:13:32;20.00;99.90
15646;DHT22;7922;43.622;1.476;2022-07-29T05:15:58;20.00;99.90
15646;DHT22;7922;43.622;1.476;2022-07-29T05:18:25;20.10;99.90
15646;DHT22;7922;43.622;1.476;2022-07-29T05:20:51;19.90;99.90
15646;DHT22;7922;43.622;1.476;2022-07-29T05:23:17;20.00;99.90
15646;DHT22;7922;43.622;1.476;2022-07-29T05:25:42;20.10;99.90
15646;DHT22;7922;43.622;1.476;2022-07-29T05:28:08;20.20;99.90
15646;DHT22;7922;43.622;1.476;2022-07-29T05:30:34;20.20;99.90
15646;DHT22;7922;43.622;1.476;2022-07-29T05:33:00;20.00;99.90
15646;DHT22;7922;43.622;1.476;2022-07-29T05:35:26;19.60;99.90
15646;DHT22;7922;43.622;1.476;2022-07-29T05:37:51;19.40;99.90
15646;DHT22;7922;43.622;1.476;2022-07-29T05:40:17;19.30;99.90
15646;DHT22;7922;43.622;1.476;2022-07-29T05:42:43;19.20;99.90
15646;DHT22;7922;43.622;1.476;2022-07-29T05:45:09;19.20;99.90
15646;DHT22;7922;43.622;1.476;2022-07-29T05:47:35;19.20;99.90
15646;DHT22;7922;43.622;1.476;2022-07-29T05:50:01;19.30;99.90
15646;DHT22;7922;43.622;1.476;2022-07-29T05:52:26;19.30;99.90
15646;DHT22;7922;43.622;1.476;2022-07-29T05:54:53;19.30;99.90
15646;DHT22;7922;43.622;1.476;2022-07-29T05:57:20;19.40;99.90
15646;DHT22;7922;43.622;1.476;2022-07-29T05:59:46;19.60;99.90
15646;DHT22;7922;43.622;1.476;2022-07-29T06:02:12;19.70;99.90
15646;DHT22;7922;43.622;1.476;2022-07-29T06:04:38;19.80;99.90
15646;DHT22;7922;43.622;1.476;2022-07-29T06:07:04;19.80;99.90
15646;DHT22;7922;43.622;1.476;2022-07-29T06:09:30;19.80;99.90
15646;DHT22;7922;43.622;1.476;2022-07-29T06:11:55;19.70;99.90
15646;DHT22;7922;43.622;1.476;2022-07-29T06:14:21;19.70;99.90
15646;DHT22;7922;43.622;1.476;2022-07-29T06:16:47;19.60;99.90
15646;DHT22;7922;43.622;1.476;2022-07-29T06:19:13;19.60;99.90
15646;DHT22;7922;43.622;1.476;2022-07-29T06:21:43;19.60;99.90
15646;DHT22;7922;43.622;1.476;2022-07-29T06:24:10;19.50;99.90
15646;DHT22;7922;43.622;1.476;2022-07-29T06:26:35;19.30;99.90
15646;DHT22;7922;43.622;1.476;2022-07-29T06:29:01;19.30;99.90
15646;DHT22;7922;43.622;1.476;2022-07-29T06:31:27;19.30;99.90
15646;DHT22;7922;43.622;1.476;2022-07-29T06:33:52;19.40;99.90
15646;DHT22;7922;43.622;1.476;2022-07-29T06:36:18;19.30;99.90
15646;DHT22;7922;43.622;1.476;2022-07-29T06:38:44;19.40;99.90
15646;DHT22;7922;43.622;1.476;2022-07-29T06:41:09;19.50;99.90
15646;DHT22;7922;43.622;1.476;2022-07-29T06:43:42;19.60;99.90
15646;DHT22;7922;43.622;1.476;2022-07-29T06:46:18;19.70;99.90
15646;DHT22;7922;43.622;1.476;2022-07-29T06:48:44;19.70;99.90
15646;DHT22;7922;43.622;1.476;2022-07-29T06:51:10;19.70;99.90
15646;DHT22;7922;43.622;1.476;2022-07-29T06:53:38;19.70;99.90
15646;DHT22;7922;43.622;1.476;2022-07-29T06:56:06;19.70;99.90
15646;DHT22;7922;43.622;1.476;2022-07-29T06:58:33;19.70;99.90
15646;DHT22;7922;43.622;1.476;2022-07-29T07:01:02;19.80;99.90
15646;DHT22;7922;43.622;1.476;2022-07-29T07:03:28;19.80;99.90
15646;DHT22;7922;43.622;1.476;2022-07-29T07:05:54;19.80;99.90
15646;DHT22;7922;43.622;1.476;2022-07-29T07:08:21;20.00;99.90
15646;DHT22;7922;43.622;1.476;2022-07-29T07:10:47;20.00;99.90
15646;DHT22;7922;43.622;1.476;2022-07-29T07:13:13;20.00;99.90
15646;DHT22;7922;43.622;1.476;2022-07-29T07:15:40;20.00;99.90
15646;DHT22;7922;43.622;1.476;2022-07-29T07:18:06;20.00;99.90
15646;DHT22;7922;43.622;1.476;2022-07-29T07:20:33;19.90;99.90
15646;DHT22;7922;43.622;1.476;2022-07-29T07:22:59;20.10;99.90
15646;DHT22;7922;43.622;1.476;2022-07-29T07:25:24;20.30;99.90
15646;DHT22;7922;43.622;1.476;2022-07-29T07:27:50;20.40;99.90
15646;DHT22;7922;43.622;1.476;2022-07-29T07:30:16;20.40;99.90
15646;DHT22;7922;43.622;1.476;2022-07-29T07:32:42;20.50;99.90
15646;DHT22;7922;43.622;1.476;2022-07-29T07:35:09;20.60;99.90
15646;DHT22;7922;43.622;1.476;2022-07-29T07:37:36;20.90;99.90
15646;DHT22;7922;43.622;1.476;2022-07-29T07:40:03;21.00;99.90
15646;DHT22;7922;43.622;1.476;2022-07-29T07:42:29;21.00;99.90
15646;DHT22;7922;43.622;1.476;2022-07-29T07:44:55;21.00;99.90
15646;DHT22;7922;43.622;1.476;2022-07-29T07:47:21;20.90;99.90
15646;DHT22;7922;43.622;1.476;2022-07-29T07:49:49;20.90;99.90
15646;DHT22;7922;43.622;1.476;2022-07-29T07:52:16;20.70;99.90
15646;DHT22;7922;43.622;1.476;2022-07-29T07:54:42;20.70;99.90
15646;DHT22;7922;43.622;1.476;2022-07-29T07:57:09;20.80;99.90
15646;DHT22;7922;43.622;1.476;2022-07-29T07:59:35;21.00;99.90
15646;DHT22;7922;43.622;1.476;2022-07-29T08:02:00;21.10;99.90
15646;DHT22;7922;43.622;1.476;2022-07-29T08:04:26;21.30;99.90
15646;DHT22;7922;43.622;1.476;2022-07-29T08:06:52;21.40;99.90
15646;DHT22;7922;43.622;1.476;2022-07-29T08:09:20;21.50;99.90
15646;DHT22;7922;43.622;1.476;2022-07-29T08:11:46;21.50;99.90
15646;DHT22;7922;43.622;1.476;2022-07-29T08:14:12;21.50;99.90
15646;DHT22;7922;43.622;1.476;2022-07-29T08:16:39;21.40;99.90
15646;DHT22;7922;43.622;1.476;2022-07-29T08:19:06;21.30;99.90
15646;DHT22;7922;43.622;1.476;2022-07-29T08:21:32;21.40;99.90
15646;DHT22;7922;43.622;1.476;2022-07-29T08:23:58;21.30;99.90
15646;DHT22;7922;43.622;1.476;2022-07-29T08:26:42;21.20;99.90
15646;DHT22;7922;43.622;1.476;2022-07-29T08:29:09;21.40;99.90
15646;DHT22;7922;43.622;1.476;2022-07-29T08:31:36;21.50;99.90
15646;DHT22;7922;43.622;1.476;2022-07-29T08:34:02;21.60;99.90
15646;DHT22;7922;43.622;1.476;2022-07-29T08:36:29;21.80;99.90
15646;DHT22;7922;43.622;1.476;2022-07-29T08:38:55;21.90;99.90
15646;DHT22;7922;43.622;1.476;2022-07-29T08:41:21;21.80;99.90
15646;DHT22;7922;43.622;1.476;2022-07-29T08:43:48;21.70;99.90
15646;DHT22;7922;43.622;1.476;2022-07-29T08:46:15;21.60;99.90
15646;DHT22;7922;43.622;1.476;2022-07-29T08:48:42;21.60;99.90
15646;DHT22;7922;43.622;1.476;2022-07-29T08:51:14;21.60;99.90
15646;DHT22;7922;43.622;1.476;2022-07-29T08:53:42;21.60;99.90
15646;DHT22;7922;43.622;1.476;2022-07-29T08:56:12;21.70;99.90
15646;DHT22;7922;43.622;1.476;2022-07-29T08:58:39;21.60;99.90
15646;DHT22;7922;43.622;1.476;2022-07-29T09:01:06;21.50;99.90
15646;DHT22;7922;43.622;1.476;2022-07-29T09:03:34;21.40;99.90
15646;DHT22;7922;43.622;1.476;2022-07-29T09:06:01;21.30;99.90
15646;DHT22;7922;43.622;1.476;2022-07-29T09:08:28;21.50;99.90
15646;DHT22;7922;43.622;1.476;2022-07-29T09:10:54;21.60;99.90
15646;DHT22;7922;43.622;1.476;2022-07-29T09:13:25;21.60;99.90
15646;DHT22;7922;43.622;1.476;2022-07-29T09:15:51;21.60;99.90
15646;DHT22;7922;43.622;1.476;2022-07-29T09:21:04;22.10;99.90
15646;DHT22;7922;43.622;1.476;2022-07-29T09:26:31;22.50;99.90
15646;DHT22;7922;43.622;1.476;2022-07-29T09:28:58;22.70;99.90
15646;DHT22;7922;43.622;1.476;2022-07-29T09:31:36;22.50;99.90
15646;DHT22;7922;43.622;1.476;2022-07-29T09:34:03;22.40;99.90
15646;DHT22;7922;43.622;1.476;2022-07-29T09:36:29;22.20;99.90
15646;DHT22;7922;43.622;1.476;2022-07-29T09:38:59;22.10;99.90
15646;DHT22;7922;43.622;1.476;2022-07-29T09:41:29;22.20;99.90
15646;DHT22;7922;43.622;1.476;2022-07-29T09:43:58;22.30;99.90
15646;DHT22;7922;43.622;1.476;2022-07-29T09:46:24;22.40;99.90
15646;DHT22;7922;43.622;1.476;2022-07-29T09:49:07;22.50;99.90
15646;DHT22;7922;43.622;1.476;2022-07-29T09:51:34;22.70;99.90
15646;DHT22;7922;43.622;1.476;2022-07-29T09:54:00;22.60;99.90
15646;DHT22;7922;43.622;1.476;2022-07-29T09:56:42;22.40;99.90
15646;DHT22;7922;43.622;1.476;2022-07-29T09:59:08;22.20;99.90
15646;DHT22;7922;43.622;1.476;2022-07-29T10:01:34;22.30;99.90
15646;DHT22;7922;43.622;1.476;2022-07-29T10:04:02;22.60;99.90
15646;DHT22;7922;43.622;1.476;2022-07-29T10:06:28;22.80;99.90
15646;DHT22;7922;43.622;1.476;2022-07-29T10:08:54;22.70;99.90
15646;DHT22;7922;43.622;1.476;2022-07-29T10:11:20;22.90;99.90
15646;DHT22;7922;43.622;1.476;2022-07-29T10:13:48;22.90;99.90
15646;DHT22;7922;43.622;1.476;2022-07-29T10:16:15;23.20;99.90
15646;DHT22;7922;43.622;1.476;2022-07-29T10:18:42;23.90;99.90
15646;DHT22;7922;43.622;1.476;2022-07-29T10:21:09;24.20;99.90
15646;DHT22;7922;43.622;1.476;2022-07-29T10:23:36;24.20;99.90
15646;DHT22;7922;43.622;1.476;2022-07-29T10:26:03;24.40;99.90
15646;DHT22;7922;43.622;1.476;2022-07-29T10:28:30;24.90;99.90
15646;DHT22;7922;43.622;1.476;2022-07-29T10:31:06;25.20;99.90
15646;DHT22;7922;43.622;1.476;2022-07-29T10:36:15;25.20;99.90
15646;DHT22;7922;43.622;1.476;2022-07-29T10:39:05;25.10;99.90
15646;DHT22;7922;43.622;1.476;2022-07-29T10:44:33;25.00;99.90
15646;DHT22;7922;43.622;1.476;2022-07-29T10:46:59;25.20;99.90
15646;DHT22;7922;43.622;1.476;2022-07-29T10:49:26;25.20;99.90
15646;DHT22;7922;43.622;1.476;2022-07-29T10:52:06;25.20;99.90
15646;DHT22;7922;43.622;1.476;2022-07-29T10:54:42;25.40;99.90
15646;DHT22;7922;43.622;1.476;2022-07-29T10:57:19;25.50;99.90
15646;DHT22;7922;43.622;1.476;2022-07-29T11:05:07;25.20;99.90
15646;DHT22;7922;43.622;1.476;2022-07-29T11:07:35;25.00;99.90
15646;DHT22;7922;43.622;1.476;2022-07-29T11:15:18;24.80;99.90
15646;DHT22;7922;43.622;1.476;2022-07-29T11:20:38;24.90;99.90
15646;DHT22;7922;43.622;1.476;2022-07-29T11:23:28;24.70;99.90
15646;DHT22;7922;43.622;1.476;2022-07-29T11:26:13;24.90;99.90
15646;DHT22;7922;43.622;1.476;2022-07-29T11:29:01;24.50;99.90
15646;DHT22;7922;43.622;1.476;2022-07-29T11:31:47;24.70;99.90
15646;DHT22;7922;43.622;1.476;2022-07-29T11:47:24;24.40;99.90
15646;DHT22;7922;43.622;1.476;2022-07-29T11:49:50;24.50;99.90
15646;DHT22;7922;43.622;1.476;2022-07-29T11:52:17;24.60;99.90
15646;DHT22;7922;43.622;1.476;2022-07-29T11:54:43;24.70;99.90
15646;DHT22;7922;43.622;1.476;2022-07-29T11:57:09;25.00;99.90
15646;DHT22;7922;43.622;1.476;2022-07-29T11:59:40;25.30;99.90
15646;DHT22;7922;43.622;1.476;2022-07-29T12:02:07;25.10;99.90
15646;DHT22;7922;43.622;1.476;2022-07-29T12:04:55;25.70;99.90
15646;DHT22;7922;43.622;1.476;2022-07-29T12:07:32;26.20;99.90
15646;DHT22;7922;43.622;1.476;2022-07-29T12:09:59;26.50;99.90
15646;DHT22;7922;43.622;1.476;2022-07-29T12:12:25;26.70;99.90
15646;DHT22;7922;43.622;1.476;2022-07-29T12:14:51;27.10;99.90
15646;DHT22;7922;43.622;1.476;2022-07-29T12:17:31;27.40;99.90
15646;DHT22;7922;43.622;1.476;2022-07-29T12:20:00;27.30;99.90
15646;DHT22;7922;43.622;1.476;2022-07-29T12:24:55;27.80;99.90
15646;DHT22;7922;43.622;1.476;2022-07-29T12:27:22;27.60;99.90
15646;DHT22;7922;43.622;1.476;2022-07-29T12:29:59;27.40;99.90
15646;DHT22;7922;43.622;1.476;2022-07-29T12:32:36;27.70;99.90
15646;DHT22;7922;43.622;1.476;2022-07-29T12:35:14;27.50;99.90
15646;DHT22;7922;43.622;1.476;2022-07-29T12:37:42;27.70;99.90
15646;DHT22;7922;43.622;1.476;2022-07-29T12:40:10;28.20;99.90
15646;DHT22;7922;43.622;1.476;2022-07-29T12:42:36;28.50;99.90
15646;DHT22;7922;43.622;1.476;2022-07-29T12:45:03;27.80;99.90
15646;DHT22;7922;43.622;1.476;2022-07-29T12:47:29;28.20;99.90
15646;DHT22;7922;43.622;1.476;2022-07-29T12:50:13;28.80;99.90
15646;DHT22;7922;43.622;1.476;2022-07-29T12:52:44;28.90;99.90
15646;DHT22;7922;43.622;1.476;2022-07-29T12:55:10;28.50;99.90
15646;DHT22;7922;43.622;1.476;2022-07-29T12:57:50;28.50;99.90
15646;DHT22;7922;43.622;1.476;2022-07-29T13:00:22;28.70;99.90
15646;DHT22;7922;43.622;1.476;2022-07-29T13:02:55;28.70;99.90
15646;DHT22;7922;43.622;1.476;2022-07-29T13:05:21;28.70;99.90
15646;DHT22;7922;43.622;1.476;2022-07-29T13:07:47;28.70;99.90
15646;DHT22;7922;43.622;1.476;2022-07-29T13:10:15;28.70;99.90
15646;DHT22;7922;43.622;1.476;2022-07-29T13:13:03;28.50;99.90
15646;DHT22;7922;43.622;1.476;2022-07-29T13:15:29;28.30;99.90
15646;DHT22;7922;43.622;1.476;2022-07-29T13:17:55;27.90;99.90
15646;DHT22;7922;43.622;1.476;2022-07-29T13:20:25;27.60;99.90
15646;DHT22;7922;43.622;1.476;2022-07-29T13:22:53;27.60;99.90
15646;DHT22;7922;43.622;1.476;2022-07-29T13:25:30;28.00;99.90
15646;DHT22;7922;43.622;1.476;2022-07-29T13:27:58;28.10;99.90
15646;DHT22;7922;43.622;1.476;2022-07-29T13:30:25;28.20;99.90
15646;DHT22;7922;43.622;1.476;2022-07-29T13:32:51;27.80;99.90
15646;DHT22;7922;43.622;1.476;2022-07-29T13:35:18;27.90;99.90
15646;DHT22;7922;43.622;1.476;2022-07-29T13:37:44;27.80;99.90
15646;DHT22;7922;43.622;1.476;2022-07-29T13:40:10;27.80;99.90
15646;DHT22;7922;43.622;1.476;2022-07-29T13:42:36;27.60;99.90
15646;DHT22;7922;43.622;1.476;2022-07-29T13:45:03;27.00;99.90
15646;DHT22;7922;43.622;1.476;2022-07-29T13:47:30;26.60;99.90
15646;DHT22;7922;43.622;1.476;2022-07-29T13:49:56;26.50;99.90
15646;DHT22;7922;43.622;1.476;2022-07-29T13:52:21;26.20;99.90
15646;DHT22;7922;43.622;1.476;2022-07-29T13:54:47;26.40;99.90
15646;DHT22;7922;43.622;1.476;2022-07-29T13:57:14;26.70;99.90
15646;DHT22;7922;43.622;1.476;2022-07-29T13:59:43;26.90;99.90
15646;DHT22;7922;43.622;1.476;2022-07-29T14:02:10;26.70;99.90
15646;DHT22;7922;43.622;1.476;2022-07-29T14:04:36;26.80;99.90
15646;DHT22;7922;43.622;1.476;2022-07-29T14:07:02;27.00;99.90
15646;DHT22;7922;43.622;1.476;2022-07-29T14:09:28;27.20;99.90
15646;DHT22;7922;43.622;1.476;2022-07-29T14:11:54;27.40;99.90
15646;DHT22;7922;43.622;1.476;2022-07-29T14:14:20;27.20;99.90
15646;DHT22;7922;43.622;1.476;2022-07-29T14:16:46;27.20;99.90
15646;DHT22;7922;43.622;1.476;2022-07-29T14:19:12;27.20;99.90
15646;DHT22;7922;43.622;1.476;2022-07-29T14:21:38;27.20;99.90
15646;DHT22;7922;43.622;1.476;2022-07-29T14:24:05;27.10;99.90
15646;DHT22;7922;43.622;1.476;2022-07-29T14:26:31;27.20;99.90
15646;DHT22;7922;43.622;1.476;2022-07-29T14:28:57;27.10;99.90
15646;DHT22;7922;43.622;1.476;2022-07-29T14:31:23;26.90;99.90
15646;DHT22;7922;43.622;1.476;2022-07-29T14:33:48;26.90;99.90
15646;DHT22;7922;43.622;1.476;2022-07-29T14:36:14;27.00;99.90
15646;DHT22;7922;43.622;1.476;2022-07-29T14:38:40;27.10;99.90
15646;DHT22;7922;43.622;1.476;2022-07-29T14:41:06;27.10;99.90
15646;DHT22;7922;43.622;1.476;2022-07-29T14:43:34;27.30;99.90
15646;DHT22;7922;43.622;1.476;2022-07-29T14:46:00;27.60;99.90
15646;DHT22;7922;43.622;1.476;2022-07-29T14:48:26;27.60;99.90
15646;DHT22;7922;43.622;1.476;2022-07-29T14:50:52;27.70;99.90
15646;DHT22;7922;43.622;1.476;2022-07-29T14:53:18;28.10;99.90
15646;DHT22;7922;43.622;1.476;2022-07-29T14:55:44;28.20;99.90
15646;DHT22;7922;43.622;1.476;2022-07-29T14:58:10;28.40;99.90
15646;DHT22;7922;43.622;1.476;2022-07-29T15:00:36;28.10;99.90
15646;DHT22;7922;43.622;1.476;2022-07-29T15:03:03;28.20;99.90
15646;DHT22;7922;43.622;1.476;2022-07-29T15:05:30;27.60;99.90
15646;DHT22;7922;43.622;1.476;2022-07-29T15:07:56;27.50;99.90
15646;DHT22;7922;43.622;1.476;2022-07-29T15:10:22;27.60;99.90
15646;DHT22;7922;43.622;1.476;2022-07-29T15:12:48;27.60;99.90
15646;DHT22;7922;43.622;1.476;2022-07-29T15:15:13;27.50;99.90
15646;DHT22;7922;43.622;1.476;2022-07-29T15:17:39;27.80;99.90
15646;DHT22;7922;43.622;1.476;2022-07-29T15:20:06;28.20;99.90
15646;DHT22;7922;43.622;1.476;2022-07-29T15:22:32;28.00;99.90
15646;DHT22;7922;43.622;1.476;2022-07-29T15:24:57;27.90;99.90
15646;DHT22;7922;43.622;1.476;2022-07-29T15:27:23;27.80;99.90
15646;DHT22;7922;43.622;1.476;2022-07-29T15:29:49;27.70;99.90
15646;DHT22;7922;43.622;1.476;2022-07-29T15:32:14;27.80;99.90
15646;DHT22;7922;43.622;1.476;2022-07-29T15:34:40;28.10;99.90
15646;DHT22;7922;43.622;1.476;2022-07-29T15:37:06;28.00;99.90
15646;DHT22;7922;43.622;1.476;2022-07-29T15:39:32;28.00;99.90
15646;DHT22;7922;43.622;1.476;2022-07-29T15:41:58;27.80;99.90
15646;DHT22;7922;43.622;1.476;2022-07-29T15:44:26;27.60;99.90
15646;DHT22;7922;43.622;1.476;2022-07-29T15:46:52;27.50;99.90
15646;DHT22;7922;43.622;1.476;2022-07-29T15:49:36;27.30;99.90
15646;DHT22;7922;43.622;1.476;2022-07-29T15:52:05;27.40;99.90
15646;DHT22;7922;43.622;1.476;2022-07-29T15:54:32;27.50;99.90
15646;DHT22;7922;43.622;1.476;2022-07-29T15:56:58;27.30;99.90
15646;DHT22;7922;43.622;1.476;2022-07-29T15:59:24;27.30;99.90
15646;DHT22;7922;43.622;1.476;2022-07-29T16:01:49;27.20;99.90
15646;DHT22;7922;43.622;1.476;2022-07-29T16:04:16;27.30;99.90
15646;DHT22;7922;43.622;1.476;2022-07-29T16:06:42;27.40;99.90
15646;DHT22;7922;43.622;1.476;2022-07-29T16:09:08;27.30;99.90
15646;DHT22;7922;43.622;1.476;2022-07-29T16:11:34;27.40;99.90
15646;DHT22;7922;43.622;1.476;2022-07-29T16:14:00;27.50;99.90
15646;DHT22;7922;43.622;1.476;2022-07-29T16:16:26;27.60;99.90
15646;DHT22;7922;43.622;1.476;2022-07-29T16:18:52;27.60;99.90
15646;DHT22;7922;43.622;1.476;2022-07-29T16:21:17;27.60;99.90
15646;DHT22;7922;43.622;1.476;2022-07-29T16:23:43;27.60;99.90
15646;DHT22;7922;43.622;1.476;2022-07-29T16:26:09;27.70;99.90
15646;DHT22;7922;43.622;1.476;2022-07-29T16:28:35;27.50;99.90
15646;DHT22;7922;43.622;1.476;2022-07-29T16:31:01;27.70;99.90
15646;DHT22;7922;43.622;1.476;2022-07-29T16:33:27;27.60;99.90
15646;DHT22;7922;43.622;1.476;2022-07-29T16:35:53;27.60;99.90
15646;DHT22;7922;43.622;1.476;2022-07-29T16:38:18;27.90;99.90
15646;DHT22;7922;43.622;1.476;2022-07-29T16:40:44;27.50;99.90
15646;DHT22;7922;43.622;1.476;2022-07-29T16:43:10;27.40;99.90